sensor_id;sensor_type;location;lat;lon;timestamp;P1;durP1;ratioP1;P2;durP2;ratioP2
7607;SDS011;3845;48.120;11.534;2023-04-03T00:00:36;6.80;;;6.10;;
7607;SDS011;3845;48.120;11.534;2023-04-03T00:03:01;7.23;;;6.00;;
7607;SDS011;3845;48.120;11.534;2023-04-03T00:05:26;7.10;;;5.80;;
7607;SDS011;3845;48.120;11.534;2023-04-03T00:07:52;6.03;;;5.43;;
7607;SDS011;3845;48.120;11.534;2023-04-03T00:10:17;6.67;;;5.90;;
7607;SDS011;3845;48.120;11.534;2023-04-03T00:12:43;6.27;;;5.63;;
7607;SDS011;3845;48.120;11.534;2023-04-03T00:15:08;7.23;;;6.40;;
7607;SDS011;3845;48.120;11.534;2023-04-03T00:17:34;7.37;;;6.50;;
7607;SDS011;3845;48.120;11.534;2023-04-03T00:19:59;7.00;;;6.23;;
7607;SDS011;3845;48.120;11.534;2023-04-03T00:22:24;7.93;;;6.10;;
7607;SDS011;3845;48.120;11.534;2023-04-03T00:24:51;6.93;;;6.23;;
7607;SDS011;3845;48.120;11.534;2023-04-03T00:27:16;6.93;;;5.80;;
7607;SDS011;3845;48.120;11.534;2023-04-03T00:29:42;6.10;;;5.30;;
7607;SDS011;3845;48.120;11.534;2023-04-03T00:32:07;6.87;;;6.17;;
7607;SDS011;3845;48.120;11.534;2023-04-03T00:34:32;6.60;;;5.70;;
7607;SDS011;3845;48.120;11.534;2023-04-03T00:36:57;7.70;;;6.03;;
7607;SDS011;3845;48.120;11.534;2023-04-03T00:39:23;6.47;;;5.47;;
7607;SDS011;3845;48.120;11.534;2023-04-03T00:41:48;7.10;;;6.10;;
7607;SDS011;3845;48.120;11.534;2023-04-03T00:44:20;6.97;;;6.00;;
7607;SDS011;3845;48.120;11.534;2023-04-03T00:46:46;7.00;;;5.70;;
7607;SDS011;3845;48.120;11.534;2023-04-03T00:49:11;6.00;;;5.40;;
7607;SDS011;3845;48.120;11.534;2023-04-03T00:51:37;6.57;;;5.80;;
7607;SDS011;3845;48.120;11.534;2023-04-03T00:54:02;5.90;;;5.30;;
7607;SDS011;3845;48.120;11.534;2023-04-03T00:56:30;8.37;;;5.83;;
7607;SDS011;3845;48.120;11.534;2023-04-03T00:58:57;6.90;;;5.80;;
7607;SDS011;3845;48.120;11.534;2023-04-03T01:01:25;5.63;;;5.03;;
7607;SDS011;3845;48.120;11.534;2023-04-03T01:03:52;5.00;;;4.50;;
7607;SDS011;3845;48.120;11.534;2023-04-03T01:06:19;6.13;;;4.60;;
7607;SDS011;3845;48.120;11.534;2023-04-03T01:08:48;5.23;;;4.60;;
7607;SDS011;3845;48.120;11.534;2023-04-03T01:11:14;5.53;;;4.77;;
7607;SDS011;3845;48.120;11.534;2023-04-03T01:13:39;5.93;;;4.97;;
7607;SDS011;3845;48.120;11.534;2023-04-03T01:16:05;5.27;;;4.77;;
7607;SDS011;3845;48.120;11.534;2023-04-03T01:18:31;5.87;;;4.90;;
7607;SDS011;3845;48.120;11.534;2023-04-03T01:21:04;5.70;;;5.10;;
7607;SDS011;3845;48.120;11.534;2023-04-03T01:23:36;5.67;;;4.50;;
7607;SDS011;3845;48.120;11.534;2023-04-03T01:26:04;5.30;;;4.80;;
7607;SDS011;3845;48.120;11.534;2023-04-03T01:28:31;5.60;;;4.80;;
7607;SDS011;3845;48.120;11.534;2023-04-03T01:33:42;5.47;;;4.93;;
7607;SDS011;3845;48.120;11.534;2023-04-03T01:36:07;5.80;;;5.10;;
7607;SDS011;3845;48.120;11.534;2023-04-03T01:38:33;7.10;;;4.97;;
7607;SDS011;3845;48.120;11.534;2023-04-03T01:40:58;6.10;;;5.50;;
7607;SDS011;3845;48.120;11.534;2023-04-03T01:43:24;6.20;;;4.70;;
7607;SDS011;3845;48.120;11.534;2023-04-03T01:45:49;5.63;;;5.10;;
7607;SDS011;3845;48.120;11.534;2023-04-03T01:48:15;5.67;;;5.07;;
7607;SDS011;3845;48.120;11.534;2023-04-03T01:50:41;6.53;;;5.03;;
7607;SDS011;3845;48.120;11.534;2023-04-03T01:53:06;7.33;;;5.53;;
7607;SDS011;3845;48.120;11.534;2023-04-03T01:55:32;6.93;;;5.63;;
7607;SDS011;3845;48.120;11.534;2023-04-03T01:57:57;6.13;;;5.50;;
7607;SDS011;3845;48.120;11.534;2023-04-03T02:00:22;5.67;;;5.13;;
7607;SDS011;3845;48.120;11.534;2023-04-03T02:02:48;6.10;;;5.50;;
7607;SDS011;3845;48.120;11.534;2023-04-03T02:05:13;6.77;;;5.40;;
7607;SDS011;3845;48.120;11.534;2023-04-03T02:07:38;6.20;;;5.60;;
7607;SDS011;3845;48.120;11.534;2023-04-03T02:10:04;6.33;;;5.73;;
7607;SDS011;3845;48.120;11.534;2023-04-03T02:12:29;6.53;;;5.20;;
7607;SDS011;3845;48.120;11.534;2023-04-03T02:14:55;5.30;;;4.70;;
7607;SDS011;3845;48.120;11.534;2023-04-03T02:17:20;6.00;;;5.10;;
7607;SDS011;3845;48.120;11.534;2023-04-03T02:19:45;6.50;;;5.63;;
7607;SDS011;3845;48.120;11.534;2023-04-03T02:22:11;6.50;;;5.67;;
7607;SDS011;3845;48.120;11.534;2023-04-03T02:24:36;7.70;;;5.73;;
7607;SDS011;3845;48.120;11.534;2023-04-03T02:27:03;6.23;;;5.10;;
7607;SDS011;3845;48.120;11.534;2023-04-03T02:29:29;7.20;;;5.30;;
7607;SDS011;3845;48.120;11.534;2023-04-03T02:31:54;5.70;;;5.07;;
7607;SDS011;3845;48.120;11.534;2023-04-03T02:34:19;7.37;;;5.97;;
7607;SDS011;3845;48.120;11.534;2023-04-03T02:36:45;6.97;;;5.60;;
7607;SDS011;3845;48.120;11.534;2023-04-03T02:39:10;5.27;;;4.73;;
7607;SDS011;3845;48.120;11.534;2023-04-03T02:41:36;5.00;;;4.50;;
7607;SDS011;3845;48.120;11.534;2023-04-03T02:44:01;5.03;;;4.33;;
7607;SDS011;3845;48.120;11.534;2023-04-03T02:46:27;5.47;;;4.60;;
7607;SDS011;3845;48.120;11.534;2023-04-03T02:48:53;5.47;;;4.03;;
7607;SDS011;3845;48.120;11.534;2023-04-03T02:51:19;4.23;;;3.83;;
7607;SDS011;3845;48.120;11.534;2023-04-03T02:53:44;4.13;;;3.53;;
7607;SDS011;3845;48.120;11.534;2023-04-03T02:56:09;4.60;;;4.10;;
7607;SDS011;3845;48.120;11.534;2023-04-03T02:58:35;4.50;;;3.90;;
7607;SDS011;3845;48.120;11.534;2023-04-03T03:01:00;4.13;;;3.70;;
7607;SDS011;3845;48.120;11.534;2023-04-03T03:03:25;4.43;;;3.93;;
7607;SDS011;3845;48.120;11.534;2023-04-03T03:06:00;4.67;;;4.20;;
7607;SDS011;3845;48.120;11.534;2023-04-03T03:08:32;5.80;;;4.40;;
7607;SDS011;3845;48.120;11.534;2023-04-03T03:10:58;4.83;;;4.00;;
7607;SDS011;3845;48.120;11.534;2023-04-03T03:13:23;4.50;;;3.90;;
7607;SDS011;3845;48.120;11.534;2023-04-03T03:15:49;4.97;;;4.43;;
7607;SDS011;3845;48.120;11.534;2023-04-03T03:18:15;5.17;;;4.53;;
7607;SDS011;3845;48.120;11.534;2023-04-03T03:20:40;5.67;;;4.13;;
7607;SDS011;3845;48.120;11.534;2023-04-03T03:23:05;5.80;;;4.70;;
7607;SDS011;3845;48.120;11.534;2023-04-03T03:25:30;5.07;;;4.20;;
7607;SDS011;3845;48.120;11.534;2023-04-03T03:27:56;6.00;;;4.67;;
7607;SDS011;3845;48.120;11.534;2023-04-03T03:30:21;5.30;;;4.00;;
7607;SDS011;3845;48.120;11.534;2023-04-03T03:32:46;5.53;;;4.27;;
7607;SDS011;3845;48.120;11.534;2023-04-03T03:35:12;4.33;;;3.90;;
7607;SDS011;3845;48.120;11.534;2023-04-03T03:37:37;4.73;;;3.90;;
7607;SDS011;3845;48.120;11.534;2023-04-03T03:40:02;4.90;;;3.70;;
7607;SDS011;3845;48.120;11.534;2023-04-03T03:42:28;4.30;;;3.90;;
7607;SDS011;3845;48.120;11.534;2023-04-03T03:44:53;6.07;;;4.10;;
7607;SDS011;3845;48.120;11.534;2023-04-03T03:47:18;4.63;;;3.97;;
7607;SDS011;3845;48.120;11.534;2023-04-03T03:49:43;5.47;;;4.07;;
7607;SDS011;3845;48.120;11.534;2023-04-03T03:52:09;4.80;;;4.00;;
7607;SDS011;3845;48.120;11.534;2023-04-03T03:54:35;4.63;;;3.67;;
7607;SDS011;3845;48.120;11.534;2023-04-03T03:57:01;3.67;;;3.37;;
7607;SDS011;3845;48.120;11.534;2023-04-03T03:59:26;4.43;;;3.73;;
7607;SDS011;3845;48.120;11.534;2023-04-03T04:01:52;4.33;;;3.60;;
7607;SDS011;3845;48.120;11.534;2023-04-03T04:04:17;5.30;;;3.87;;
7607;SDS011;3845;48.120;11.534;2023-04-03T04:06:42;3.97;;;3.50;;
7607;SDS011;3845;48.120;11.534;2023-04-03T04:09:08;3.80;;;3.23;;
7607;SDS011;3845;48.120;11.534;2023-04-03T04:11:34;3.37;;;3.07;;
7607;SDS011;3845;48.120;11.534;2023-04-03T04:13:59;3.50;;;3.20;;
7607;SDS011;3845;48.120;11.534;2023-04-03T04:16:24;5.80;;;3.47;;
7607;SDS011;3845;48.120;11.534;2023-04-03T04:18:50;4.00;;;3.53;;
7607;SDS011;3845;48.120;11.534;2023-04-03T04:21:15;4.10;;;3.50;;
7607;SDS011;3845;48.120;11.534;2023-04-03T04:23:40;5.90;;;3.87;;
7607;SDS011;3845;48.120;11.534;2023-04-03T04:26:05;4.00;;;3.60;;
7607;SDS011;3845;48.120;11.534;2023-04-03T04:28:31;4.27;;;3.60;;
7607;SDS011;3845;48.120;11.534;2023-04-03T04:30:56;3.60;;;3.23;;
7607;SDS011;3845;48.120;11.534;2023-04-03T04:33:21;4.57;;;3.90;;
7607;SDS011;3845;48.120;11.534;2023-04-03T04:35:47;4.13;;;3.43;;
7607;SDS011;3845;48.120;11.534;2023-04-03T04:38:13;4.07;;;3.67;;
7607;SDS011;3845;48.120;11.534;2023-04-03T04:40:38;3.97;;;3.37;;
7607;SDS011;3845;48.120;11.534;2023-04-03T04:43:03;4.00;;;3.43;;
7607;SDS011;3845;48.120;11.534;2023-04-03T04:45:29;3.80;;;3.40;;
7607;SDS011;3845;48.120;11.534;2023-04-03T04:47:55;3.37;;;3.07;;
7607;SDS011;3845;48.120;11.534;2023-04-03T04:50:20;4.10;;;3.70;;
7607;SDS011;3845;48.120;11.534;2023-04-03T04:52:46;3.83;;;3.43;;
7607;SDS011;3845;48.120;11.534;2023-04-03T04:55:11;4.90;;;4.00;;
7607;SDS011;3845;48.120;11.534;2023-04-03T04:57:36;3.77;;;3.37;;
7607;SDS011;3845;48.120;11.534;2023-04-03T05:00:03;4.60;;;3.80;;
7607;SDS011;3845;48.120;11.534;2023-04-03T05:02:29;4.67;;;3.43;;
7607;SDS011;3845;48.120;11.534;2023-04-03T05:04:55;4.20;;;3.80;;
7607;SDS011;3845;48.120;11.534;2023-04-03T05:07:21;4.30;;;3.47;;
7607;SDS011;3845;48.120;11.534;2023-04-03T05:09:46;4.07;;;3.53;;
7607;SDS011;3845;48.120;11.534;2023-04-03T05:12:11;4.00;;;3.60;;
7607;SDS011;3845;48.120;11.534;2023-04-03T05:14:37;3.83;;;3.37;;
7607;SDS011;3845;48.120;11.534;2023-04-03T05:17:02;4.17;;;3.20;;
7607;SDS011;3845;48.120;11.534;2023-04-03T05:19:27;3.87;;;3.20;;
7607;SDS011;3845;48.120;11.534;2023-04-03T05:21:53;4.57;;;3.20;;
7607;SDS011;3845;48.120;11.534;2023-04-03T05:24:18;4.00;;;3.60;;
7607;SDS011;3845;48.120;11.534;2023-04-03T05:26:43;3.67;;;3.33;;
7607;SDS011;3845;48.120;11.534;2023-04-03T05:29:09;4.20;;;3.23;;
7607;SDS011;3845;48.120;11.534;2023-04-03T05:31:35;4.17;;;3.60;;
7607;SDS011;3845;48.120;11.534;2023-04-03T05:34:00;5.73;;;3.80;;
7607;SDS011;3845;48.120;11.534;2023-04-03T05:36:25;4.87;;;3.77;;
7607;SDS011;3845;48.120;11.534;2023-04-03T05:38:51;4.17;;;3.70;;
7607;SDS011;3845;48.120;11.534;2023-04-03T05:41:16;5.47;;;3.83;;
7607;SDS011;3845;48.120;11.534;2023-04-03T05:43:42;5.23;;;4.50;;
7607;SDS011;3845;48.120;11.534;2023-04-03T05:46:17;5.37;;;4.13;;
7607;SDS011;3845;48.120;11.534;2023-04-03T05:48:44;5.80;;;4.13;;
7607;SDS011;3845;48.120;11.534;2023-04-03T05:51:14;4.70;;;4.10;;
7607;SDS011;3845;48.120;11.534;2023-04-03T05:53:41;4.70;;;4.20;;
7607;SDS011;3845;48.120;11.534;2023-04-03T05:56:07;5.77;;;4.03;;
7607;SDS011;3845;48.120;11.534;2023-04-03T05:58:32;4.57;;;3.50;;
7607;SDS011;3845;48.120;11.534;2023-04-03T06:00:58;4.33;;;3.70;;
7607;SDS011;3845;48.120;11.534;2023-04-03T06:03:23;4.27;;;3.57;;
7607;SDS011;3845;48.120;11.534;2023-04-03T06:05:49;4.97;;;3.57;;
7607;SDS011;3845;48.120;11.534;2023-04-03T06:08:14;7.33;;;4.50;;
7607;SDS011;3845;48.120;11.534;2023-04-03T06:10:39;6.43;;;4.10;;
7607;SDS011;3845;48.120;11.534;2023-04-03T06:13:05;5.67;;;4.30;;
7607;SDS011;3845;48.120;11.534;2023-04-03T06:15:30;4.67;;;3.97;;
7607;SDS011;3845;48.120;11.534;2023-04-03T06:17:56;4.93;;;3.83;;
7607;SDS011;3845;48.120;11.534;2023-04-03T06:20:21;4.53;;;3.90;;
7607;SDS011;3845;48.120;11.534;2023-04-03T06:22:47;4.70;;;4.03;;
7607;SDS011;3845;48.120;11.534;2023-04-03T06:25:12;5.37;;;3.80;;
7607;SDS011;3845;48.120;11.534;2023-04-03T06:27:37;5.33;;;3.80;;
7607;SDS011;3845;48.120;11.534;2023-04-03T06:30:03;4.20;;;3.80;;
7607;SDS011;3845;48.120;11.534;2023-04-03T06:32:30;5.00;;;4.20;;
7607;SDS011;3845;48.120;11.534;2023-04-03T06:34:55;6.37;;;4.83;;
7607;SDS011;3845;48.120;11.534;2023-04-03T06:37:22;7.83;;;4.13;;
7607;SDS011;3845;48.120;11.534;2023-04-03T06:39:50;5.20;;;3.87;;
7607;SDS011;3845;48.120;11.534;2023-04-03T06:42:16;5.60;;;4.23;;
7607;SDS011;3845;48.120;11.534;2023-04-03T06:44:41;4.90;;;4.17;;
7607;SDS011;3845;48.120;11.534;2023-04-03T06:47:08;5.03;;;4.30;;
7607;SDS011;3845;48.120;11.534;2023-04-03T06:49:36;7.50;;;4.60;;
7607;SDS011;3845;48.120;11.534;2023-04-03T06:52:02;5.90;;;4.40;;
7607;SDS011;3845;48.120;11.534;2023-04-03T06:54:27;6.30;;;4.83;;
7607;SDS011;3845;48.120;11.534;2023-04-03T06:56:52;7.17;;;4.47;;
7607;SDS011;3845;48.120;11.534;2023-04-03T06:59:17;10.80;;;4.37;;
7607;SDS011;3845;48.120;11.534;2023-04-03T07:01:43;6.50;;;4.50;;
7607;SDS011;3845;48.120;11.534;2023-04-03T07:04:08;5.97;;;4.57;;
7607;SDS011;3845;48.120;11.534;2023-04-03T07:06:34;5.70;;;4.40;;
7607;SDS011;3845;48.120;11.534;2023-04-03T07:09:00;5.87;;;4.10;;
7607;SDS011;3845;48.120;11.534;2023-04-03T07:11:25;5.07;;;4.00;;
7607;SDS011;3845;48.120;11.534;2023-04-03T07:13:51;4.43;;;3.43;;
7607;SDS011;3845;48.120;11.534;2023-04-03T07:16:17;4.30;;;3.53;;
7607;SDS011;3845;48.120;11.534;2023-04-03T07:18:43;5.13;;;3.58;;
7607;SDS011;3845;48.120;11.534;2023-04-03T07:21:08;7.53;;;4.47;;
7607;SDS011;3845;48.120;11.534;2023-04-03T07:23:33;9.93;;;5.40;;
7607;SDS011;3845;48.120;11.534;2023-04-03T07:25:59;8.80;;;5.57;;
7607;SDS011;3845;48.120;11.534;2023-04-03T07:28:24;7.60;;;5.10;;
7607;SDS011;3845;48.120;11.534;2023-04-03T07:30:59;7.37;;;5.27;;
7607;SDS011;3845;48.120;11.534;2023-04-03T07:33:26;6.47;;;4.80;;
7607;SDS011;3845;48.120;11.534;2023-04-03T07:35:51;5.00;;;4.10;;
7607;SDS011;3845;48.120;11.534;2023-04-03T07:38:17;5.47;;;4.30;;
7607;SDS011;3845;48.120;11.534;2023-04-03T07:40:49;7.50;;;4.20;;
7607;SDS011;3845;48.120;11.534;2023-04-03T07:43:15;5.07;;;4.03;;
7607;SDS011;3845;48.120;11.534;2023-04-03T07:45:41;4.20;;;3.70;;
7607;SDS011;3845;48.120;11.534;2023-04-03T07:48:08;4.23;;;3.60;;
7607;SDS011;3845;48.120;11.534;2023-04-03T07:50:33;4.70;;;4.27;;
7607;SDS011;3845;48.120;11.534;2023-04-03T07:52:58;4.30;;;3.90;;
7607;SDS011;3845;48.120;11.534;2023-04-03T07:55:24;5.27;;;4.00;;
7607;SDS011;3845;48.120;11.534;2023-04-03T07:57:50;4.60;;;4.00;;
7607;SDS011;3845;48.120;11.534;2023-04-03T08:00:15;5.20;;;4.17;;
7607;SDS011;3845;48.120;11.534;2023-04-03T08:02:42;6.20;;;4.70;;
7607;SDS011;3845;48.120;11.534;2023-04-03T08:05:09;6.87;;;4.60;;
7607;SDS011;3845;48.120;11.534;2023-04-03T08:07:36;3.97;;;3.50;;
7607;SDS011;3845;48.120;11.534;2023-04-03T08:10:01;5.17;;;3.83;;
7607;SDS011;3845;48.120;11.534;2023-04-03T08:12:27;6.73;;;4.27;;
7607;SDS011;3845;48.120;11.534;2023-04-03T08:14:53;5.70;;;4.40;;
7607;SDS011;3845;48.120;11.534;2023-04-03T08:17:18;6.77;;;5.00;;
7607;SDS011;3845;48.120;11.534;2023-04-03T08:19:43;5.83;;;4.37;;
7607;SDS011;3845;48.120;11.534;2023-04-03T08:22:09;6.50;;;4.90;;
7607;SDS011;3845;48.120;11.534;2023-04-03T08:24:35;6.10;;;5.00;;
7607;SDS011;3845;48.120;11.534;2023-04-03T08:27:00;6.47;;;4.77;;
7607;SDS011;3845;48.120;11.534;2023-04-03T08:29:26;7.13;;;5.53;;
7607;SDS011;3845;48.120;11.534;2023-04-03T08:31:51;6.17;;;4.90;;
7607;SDS011;3845;48.120;11.534;2023-04-03T08:34:17;7.80;;;5.43;;
7607;SDS011;3845;48.120;11.534;2023-04-03T08:36:43;8.47;;;5.67;;
7607;SDS011;3845;48.120;11.534;2023-04-03T08:39:09;6.77;;;5.33;;
7607;SDS011;3845;48.120;11.534;2023-04-03T08:41:35;5.40;;;4.73;;
7607;SDS011;3845;48.120;11.534;2023-04-03T08:47:28;5.07;;;4.57;;
7607;SDS011;3845;48.120;11.534;2023-04-03T08:50:02;6.10;;;5.10;;
7607;SDS011;3845;48.120;11.534;2023-04-03T08:52:38;5.50;;;4.77;;
7607;SDS011;3845;48.120;11.534;2023-04-03T08:58:14;7.03;;;5.07;;
7607;SDS011;3845;48.120;11.534;2023-04-03T09:00:46;8.33;;;5.23;;
7607;SDS011;3845;48.120;11.534;2023-04-03T09:03:15;5.70;;;4.77;;
7607;SDS011;3845;48.120;11.534;2023-04-03T09:05:58;5.93;;;5.13;;
7607;SDS011;3845;48.120;11.534;2023-04-03T09:22:53;7.60;;;4.50;;
7607;SDS011;3845;48.120;11.534;2023-04-03T09:25:27;8.00;;;4.53;;
7607;SDS011;3845;48.120;11.534;2023-04-03T09:27:54;5.63;;;4.20;;
7607;SDS011;3845;48.120;11.534;2023-04-03T09:30:21;6.27;;;4.50;;
7607;SDS011;3845;48.120;11.534;2023-04-03T09:32:50;6.47;;;4.67;;
7607;SDS011;3845;48.120;11.534;2023-04-03T09:35:24;6.33;;;5.03;;
7607;SDS011;3845;48.120;11.534;2023-04-03T09:37:58;5.20;;;4.70;;
7607;SDS011;3845;48.120;11.534;2023-04-03T09:40:43;5.03;;;4.50;;
7607;SDS011;3845;48.120;11.534;2023-04-03T09:43:23;5.33;;;4.53;;
7607;SDS011;3845;48.120;11.534;2023-04-03T09:45:56;6.33;;;4.83;;
7607;SDS011;3845;48.120;11.534;2023-04-03T09:48:49;6.27;;;4.63;;
7607;SDS011;3845;48.120;11.534;2023-04-03T09:51:16;7.33;;;5.00;;
7607;SDS011;3845;48.120;11.534;2023-04-03T09:53:42;5.87;;;4.40;;
7607;SDS011;3845;48.120;11.534;2023-04-03T09:58:44;4.73;;;4.00;;
7607;SDS011;3845;48.120;11.534;2023-04-03T10:06:33;4.63;;;4.00;;
7607;SDS011;3845;48.120;11.534;2023-04-03T10:09:07;5.10;;;4.33;;
7607;SDS011;3845;48.120;11.534;2023-04-03T10:11:57;5.53;;;4.10;;
7607;SDS011;3845;48.120;11.534;2023-04-03T10:14:38;5.87;;;4.50;;
7607;SDS011;3845;48.120;11.534;2023-04-03T10:17:13;5.03;;;4.13;;
7607;SDS011;3845;48.120;11.534;2023-04-03T10:22:19;5.73;;;3.97;;
7607;SDS011;3845;48.120;11.534;2023-04-03T10:28:09;7.07;;;5.20;;
7607;SDS011;3845;48.120;11.534;2023-04-03T10:44:08;5.10;;;4.37;;
7607;SDS011;3845;48.120;11.534;2023-04-03T10:51:45;4.57;;;3.97;;
7607;SDS011;3845;48.120;11.534;2023-04-03T10:57:04;7.13;;;3.80;;
7607;SDS011;3845;48.120;11.534;2023-04-03T10:59:32;5.93;;;3.77;;
7607;SDS011;3845;48.120;11.534;2023-04-03T11:02:05;6.43;;;4.30;;
7607;SDS011;3845;48.120;11.534;2023-04-03T11:04:34;5.53;;;4.27;;
7607;SDS011;3845;48.120;11.534;2023-04-03T11:07:02;4.90;;;4.40;;
7607;SDS011;3845;48.120;11.534;2023-04-03T11:09:34;7.30;;;4.67;;
7607;SDS011;3845;48.120;11.534;2023-04-03T11:14:55;5.87;;;4.50;;
7607;SDS011;3845;48.120;11.534;2023-04-03T11:20:01;6.30;;;4.57;;
7607;SDS011;3845;48.120;11.534;2023-04-03T11:22:39;5.70;;;3.97;;
7607;SDS011;3845;48.120;11.534;2023-04-03T11:27:42;5.20;;;4.00;;
7607;SDS011;3845;48.120;11.534;2023-04-03T11:33:13;5.50;;;4.50;;
7607;SDS011;3845;48.120;11.534;2023-04-03T11:35:43;4.83;;;4.10;;
7607;SDS011;3845;48.120;11.534;2023-04-03T11:38:13;6.87;;;4.40;;
7607;SDS011;3845;48.120;11.534;2023-04-03T11:40:45;5.83;;;4.10;;
7607;SDS011;3845;48.120;11.534;2023-04-03T11:43:24;5.67;;;3.80;;
7607;SDS011;3845;48.120;11.534;2023-04-03T11:46:04;6.20;;;3.90;;
7607;SDS011;3845;48.120;11.534;2023-04-03T11:50:57;4.93;;;3.43;;
7607;SDS011;3845;48.120;11.534;2023-04-03T11:56:04;4.10;;;3.13;;
7607;SDS011;3845;48.120;11.534;2023-04-03T12:01:45;3.83;;;2.63;;
7607;SDS011;3845;48.120;11.534;2023-04-03T12:04:22;6.70;;;3.30;;
7607;SDS011;3845;48.120;11.534;2023-04-03T12:06:50;5.23;;;2.83;;
7607;SDS011;3845;48.120;11.534;2023-04-03T12:09:25;4.00;;;2.73;;
7607;SDS011;3845;48.120;11.534;2023-04-03T12:11:51;4.90;;;3.50;;
7607;SDS011;3845;48.120;11.534;2023-04-03T12:14:17;4.20;;;2.90;;
7607;SDS011;3845;48.120;11.534;2023-04-03T12:16:45;3.30;;;2.53;;
7607;SDS011;3845;48.120;11.534;2023-04-03T12:34:46;2.90;;;2.50;;
7607;SDS011;3845;48.120;11.534;2023-04-03T12:37:40;3.20;;;2.33;;
7607;SDS011;3845;48.120;11.534;2023-04-03T12:40:31;4.03;;;2.40;;
7607;SDS011;3845;48.120;11.534;2023-04-03T12:43:05;4.83;;;2.60;;
7607;SDS011;3845;48.120;11.534;2023-04-03T12:45:40;3.40;;;2.27;;
7607;SDS011;3845;48.120;11.534;2023-04-03T12:48:21;4.07;;;2.20;;
7607;SDS011;3845;48.120;11.534;2023-04-03T12:50:51;3.10;;;2.07;;
7607;SDS011;3845;48.120;11.534;2023-04-03T12:53:18;3.07;;;2.10;;
7607;SDS011;3845;48.120;11.534;2023-04-03T12:55:45;3.30;;;2.43;;
7607;SDS011;3845;48.120;11.534;2023-04-03T12:58:16;3.83;;;2.80;;
7607;SDS011;3845;48.120;11.534;2023-04-03T13:00:42;4.07;;;2.30;;
7607;SDS011;3845;48.120;11.534;2023-04-03T13:03:19;6.93;;;3.20;;
7607;SDS011;3845;48.120;11.534;2023-04-03T13:05:46;3.70;;;2.90;;
7607;SDS011;3845;48.120;11.534;2023-04-03T13:08:12;3.47;;;2.60;;
7607;SDS011;3845;48.120;11.534;2023-04-03T13:11:02;3.83;;;2.23;;
7607;SDS011;3845;48.120;11.534;2023-04-03T13:13:27;3.00;;;2.30;;
7607;SDS011;3845;48.120;11.534;2023-04-03T13:15:53;3.70;;;2.23;;
7607;SDS011;3845;48.120;11.534;2023-04-03T13:18:35;3.07;;;2.37;;
7607;SDS011;3845;48.120;11.534;2023-04-03T13:21:05;2.90;;;1.97;;
7607;SDS011;3845;48.120;11.534;2023-04-03T13:23:36;2.53;;;1.90;;
7607;SDS011;3845;48.120;11.534;2023-04-03T13:26:03;3.03;;;2.10;;
7607;SDS011;3845;48.120;11.534;2023-04-03T13:28:30;2.83;;;2.27;;
7607;SDS011;3845;48.120;11.534;2023-04-03T13:33:35;3.20;;;2.37;;
7607;SDS011;3845;48.120;11.534;2023-04-03T13:38:44;3.37;;;2.53;;
7607;SDS011;3845;48.120;11.534;2023-04-03T13:41:26;4.17;;;2.20;;
7607;SDS011;3845;48.120;11.534;2023-04-03T13:46:51;5.77;;;2.53;;
7607;SDS011;3845;48.120;11.534;2023-04-03T13:49:22;3.10;;;2.43;;
7607;SDS011;3845;48.120;11.534;2023-04-03T13:51:57;4.07;;;2.10;;
7607;SDS011;3845;48.120;11.534;2023-04-03T13:54:33;2.70;;;2.00;;
7607;SDS011;3845;48.120;11.534;2023-04-03T13:57:01;2.80;;;2.20;;
7607;SDS011;3845;48.120;11.534;2023-04-03T13:59:30;2.63;;;2.03;;
7607;SDS011;3845;48.120;11.534;2023-04-03T14:04:45;3.03;;;2.00;;
7607;SDS011;3845;48.120;11.534;2023-04-03T14:07:22;3.43;;;2.00;;
7607;SDS011;3845;48.120;11.534;2023-04-03T14:09:49;4.23;;;2.20;;
7607;SDS011;3845;48.120;11.534;2023-04-03T14:12:16;3.60;;;2.13;;
7607;SDS011;3845;48.120;11.534;2023-04-03T14:14:43;4.03;;;1.90;;
7607;SDS011;3845;48.120;11.534;2023-04-03T14:17:19;3.17;;;1.90;;
7607;SDS011;3845;48.120;11.534;2023-04-03T14:19:46;3.17;;;2.30;;
7607;SDS011;3845;48.120;11.534;2023-04-03T14:22:23;2.60;;;1.93;;
7607;SDS011;3845;48.120;11.534;2023-04-03T14:24:51;4.70;;;2.10;;
7607;SDS011;3845;48.120;11.534;2023-04-03T14:27:21;2.87;;;2.00;;
7607;SDS011;3845;48.120;11.534;2023-04-03T14:29:48;2.50;;;1.87;;
7607;SDS011;3845;48.120;11.534;2023-04-03T14:32:15;4.20;;;2.07;;
7607;SDS011;3845;48.120;11.534;2023-04-03T14:34:42;3.20;;;1.80;;
7607;SDS011;3845;48.120;11.534;2023-04-03T14:37:12;2.37;;;2.00;;
7607;SDS011;3845;48.120;11.534;2023-04-03T14:39:39;3.00;;;1.83;;
7607;SDS011;3845;48.120;11.534;2023-04-03T14:42:05;4.20;;;2.10;;
7607;SDS011;3845;48.120;11.534;2023-04-03T14:44:31;3.07;;;2.37;;
7607;SDS011;3845;48.120;11.534;2023-04-03T14:46:56;2.90;;;2.20;;
7607;SDS011;3845;48.120;11.534;2023-04-03T14:49:24;2.20;;;1.93;;
7607;SDS011;3845;48.120;11.534;2023-04-03T14:51:51;3.37;;;1.67;;
7607;SDS011;3845;48.120;11.534;2023-04-03T14:54:18;2.10;;;1.90;;
7607;SDS011;3845;48.120;11.534;2023-04-03T14:56:50;2.70;;;1.93;;
7607;SDS011;3845;48.120;11.534;2023-04-03T14:59:16;2.80;;;1.80;;
7607;SDS011;3845;48.120;11.534;2023-04-03T15:01:42;3.50;;;2.10;;
7607;SDS011;3845;48.120;11.534;2023-04-03T15:04:14;2.00;;;1.50;;
7607;SDS011;3845;48.120;11.534;2023-04-03T15:06:41;3.17;;;1.97;;
7607;SDS011;3845;48.120;11.534;2023-04-03T15:09:23;2.90;;;2.10;;
7607;SDS011;3845;48.120;11.534;2023-04-03T15:11:50;5.93;;;2.40;;
7607;SDS011;3845;48.120;11.534;2023-04-03T15:14:16;2.70;;;1.97;;
7607;SDS011;3845;48.120;11.534;2023-04-03T15:16:42;3.10;;;2.10;;
7607;SDS011;3845;48.120;11.534;2023-04-03T15:19:08;2.73;;;1.93;;
7607;SDS011;3845;48.120;11.534;2023-04-03T15:21:33;4.10;;;1.90;;
7607;SDS011;3845;48.120;11.534;2023-04-03T15:23:58;3.43;;;1.97;;
7607;SDS011;3845;48.120;11.534;2023-04-03T15:26:24;3.57;;;1.73;;
7607;SDS011;3845;48.120;11.534;2023-04-03T15:28:50;2.67;;;1.83;;
7607;SDS011;3845;48.120;11.534;2023-04-03T15:31:15;2.43;;;1.83;;
7607;SDS011;3845;48.120;11.534;2023-04-03T15:33:41;3.20;;;2.00;;
7607;SDS011;3845;48.120;11.534;2023-04-03T15:36:06;2.30;;;1.80;;
7607;SDS011;3845;48.120;11.534;2023-04-03T15:38:32;2.27;;;1.80;;
7607;SDS011;3845;48.120;11.534;2023-04-03T15:40:57;2.43;;;1.83;;
7607;SDS011;3845;48.120;11.534;2023-04-03T15:43:23;1.77;;;1.53;;
7607;SDS011;3845;48.120;11.534;2023-04-03T15:45:49;2.67;;;1.70;;
7607;SDS011;3845;48.120;11.534;2023-04-03T15:48:15;2.83;;;2.03;;
7607;SDS011;3845;48.120;11.534;2023-04-03T15:50:41;3.70;;;1.87;;
7607;SDS011;3845;48.120;11.534;2023-04-03T15:53:07;2.77;;;2.00;;
7607;SDS011;3845;48.120;11.534;2023-04-03T15:55:33;2.67;;;1.90;;
7607;SDS011;3845;48.120;11.534;2023-04-03T15:58:00;3.53;;;1.90;;
7607;SDS011;3845;48.120;11.534;2023-04-03T16:00:26;2.33;;;1.80;;
7607;SDS011;3845;48.120;11.534;2023-04-03T16:02:53;3.80;;;2.00;;
7607;SDS011;3845;48.120;11.534;2023-04-03T16:05:22;2.77;;;2.00;;
7607;SDS011;3845;48.120;11.534;2023-04-03T16:07:48;2.77;;;2.07;;
7607;SDS011;3845;48.120;11.534;2023-04-03T16:10:14;2.93;;;2.13;;
7607;SDS011;3845;48.120;11.534;2023-04-03T16:12:41;3.80;;;2.20;;
7607;SDS011;3845;48.120;11.534;2023-04-03T16:15:06;5.77;;;2.33;;
7607;SDS011;3845;48.120;11.534;2023-04-03T16:17:32;2.97;;;2.00;;
7607;SDS011;3845;48.120;11.534;2023-04-03T16:19:59;3.10;;;2.17;;
7607;SDS011;3845;48.120;11.534;2023-04-03T16:22:25;3.33;;;1.90;;
7607;SDS011;3845;48.120;11.534;2023-04-03T16:24:51;3.07;;;2.13;;
7607;SDS011;3845;48.120;11.534;2023-04-03T16:27:16;2.93;;;1.97;;
7607;SDS011;3845;48.120;11.534;2023-04-03T16:29:42;2.87;;;2.07;;
7607;SDS011;3845;48.120;11.534;2023-04-03T16:32:07;4.13;;;2.10;;
7607;SDS011;3845;48.120;11.534;2023-04-03T16:34:32;3.73;;;2.10;;
7607;SDS011;3845;48.120;11.534;2023-04-03T16:36:58;4.20;;;2.23;;
7607;SDS011;3845;48.120;11.534;2023-04-03T16:39:23;3.53;;;2.10;;
7607;SDS011;3845;48.120;11.534;2023-04-03T16:41:49;2.93;;;2.13;;
7607;SDS011;3845;48.120;11.534;2023-04-03T16:44:14;3.03;;;1.83;;
7607;SDS011;3845;48.120;11.534;2023-04-03T16:46:40;3.37;;;2.27;;